Time;durP1;ratioP1;P1;durP2;ratioP2;P2;SDS_P1;SDS_P2;PMS_P1;PMS_P2;Temp;Humidity;BMP_temperature;BMP_pressure;BME280_temperature;BME280_humidity;BME280_pressure;Samples;Min_cycle;Max_cycle;Signal;HPM_P1;HPM_P2
2022/10/31 00:00:20;;;;;;;;;13.25;13.25;;;;;;;;5085800;28;45327;-68
2022/10/31 00:02:45;;;;;;;;;11.50;11.50;;;;;;;;5122061;27;45233;-76
2022/10/31 00:05:10;;;;;;;;;12.00;12.00;;;;;;;;5078031;28;45366;-76
2022/10/31 00:07:36;;;;;;;;;13.00;12.25;;;;;;;;5076017;27;45412;-75
2022/10/31 00:10:01;;;;;;;;;12.00;12.00;;;;;;;;5075447;27;45341;-76
2022/10/31 00:12:26;;;;;;;;;16.75;16.75;;;;;;;;5075951;27;45417;-74
2022/10/31 00:14:51;;;;;;;;;15.00;15.00;;;;;;;;5075465;27;45691;-75
2022/10/31 00:17:16;;;;;;;;;13.50;13.50;;;;;;;;5075599;28;47338;-75
2022/10/31 00:19:42;;;;;;;;;14.75;14.75;;;;;;;;5078236;27;45356;-75
2022/10/31 00:22:07;;;;;;;;;12.25;12.25;;;;;;;;5079372;27;45196;-74
2022/10/31 00:24:32;;;;;;;;;11.25;11.25;;;;;;;;5079621;27;45214;-72
2022/10/31 00:26:57;;;;;;;;;12.50;12.50;;;;;;;;5078768;27;45495;-69
2022/10/31 00:29:22;;;;;;;;;15.50;15.50;;;;;;;;5078521;27;45492;-72
2022/10/31 00:31:47;;;;;;;;;14.00;13.50;;;;;;;;5079091;27;45343;-68
2022/10/31 00:34:13;;;;;;;;;14.75;14.75;;;;;;;;5079005;27;45341;-71
2022/10/31 00:36:38;;;;;;;;;11.25;11.25;;;;;;;;5079242;28;45354;-74
2022/10/31 00:39:03;;;;;;;;;15.00;15.00;;;;;;;;5116477;27;45550;-75
2022/10/31 00:41:29;;;;;;;;;15.75;15.75;;;;;;;;5085320;27;45432;-74
2022/10/31 00:43:54;;;;;;;;;13.00;13.00;;;;;;;;5079865;27;45413;-74
2022/10/31 00:46:19;;;;;;;;;13.75;13.75;;;;;;;;5078357;28;45271;-74
2022/10/31 00:48:45;;;;;;;;;12.50;12.50;;;;;;;;5078475;27;45366;-74
2022/10/31 00:51:10;;;;;;;;;14.50;14.50;;;;;;;;5078732;27;45538;-74
2022/10/31 00:53:35;;;;;;;;;17.00;17.00;;;;;;;;5077153;28;45558;-75
2022/10/31 00:56:00;;;;;;;;;17.75;16.75;;;;;;;;5078362;27;45644;-76
2022/10/31 00:58:26;;;;;;;;;18.25;18.25;;;;;;;;5076754;28;45349;-74
2022/10/31 01:00:54;;;;;;;;;17.00;17.00;;;;;;;;5078848;27;45380;-74
2022/10/31 01:03:20;;;;;;;;;18.75;18.75;;;;;;;;5079136;27;45179;-74
2022/10/31 01:05:45;;;;;;;;;21.00;21.00;;;;;;;;5078688;27;46107;-75
2022/10/31 01:08:11;;;;;;;;;18.25;18.25;;;;;;;;5082727;27;45355;-72
2022/10/31 01:10:36;;;;;;;;;20.00;20.00;;;;;;;;5079314;27;45165;-72
2022/10/31 01:13:01;;;;;;;;;22.25;22.25;;;;;;;;5079215;27;45509;-74
2022/10/31 01:15:26;;;;;;;;;17.25;17.25;;;;;;;;5080071;27;46538;-70
2022/10/31 01:17:51;;;;;;;;;21.75;21.25;;;;;;;;5081096;27;45288;-76
2022/10/31 01:20:17;;;;;;;;;19.50;19.50;;;;;;;;5079132;27;45307;-77
2022/10/31 01:22:42;;;;;;;;;22.25;22.25;;;;;;;;5078357;27;45662;-75
2022/10/31 01:25:08;;;;;;;;;22.25;22.25;;;;;;;;5079018;28;46255;-78
2022/10/31 01:27:33;;;;;;;;;18.75;18.75;;;;;;;;5078370;27;46054;-75
2022/10/31 01:29:59;;;;;;;;;25.50;25.50;;;;;;;;5086355;27;45267;-76
2022/10/31 01:32:24;;;;;;;;;21.50;19.50;;;;;;;;5083022;27;45452;-77
2022/10/31 01:34:49;;;;;;;;;23.75;21.50;;;;;;;;5096892;27;46070;-75
2022/10/31 01:37:14;;;;;;;;;21.50;21.00;;;;;;;;5098415;27;45268;-74
2022/10/31 01:39:40;;;;;;;;;22.25;21.25;;;;;;;;5097176;27;45409;-73
2022/10/31 01:42:05;;;;;;;;;26.00;26.00;;;;;;;;5098785;27;45303;-73
2022/10/31 01:44:30;;;;;;;;;20.25;20.25;;;;;;;;5099853;27;45343;-72
2022/10/31 01:46:58;;;;;;;;;21.00;21.00;;;;;;;;5098158;27;45959;-68
2022/10/31 01:49:27;;;;;;;;;23.25;23.00;;;;;;;;5097149;27;45375;-70
2022/10/31 01:52:04;;;;;;;;;16.00;16.00;;;;;;;;5098706;27;45243;-71
2022/10/31 01:54:32;;;;;;;;;18.75;18.75;;;;;;;;5097918;27;45373;-75
2022/10/31 01:56:59;;;;;;;;;22.00;22.00;;;;;;;;5097841;27;45348;-74
2022/10/31 01:59:26;;;;;;;;;20.00;20.00;;;;;;;;5097090;27;45246;-73
2022/10/31 02:01:52;;;;;;;;;20.00;18.75;;;;;;;;5098099;27;45195;-75
2022/10/31 02:04:18;;;;;;;;;18.00;18.00;;;;;;;;5098041;27;46242;-75
2022/10/31 02:06:49;;;;;;;;;19.50;19.50;;;;;;;;5097775;27;45434;-74
2022/10/31 02:09:15;;;;;;;;;21.00;21.00;;;;;;;;5097598;27;45461;-76
2022/10/31 02:11:40;;;;;;;;;20.25;19.00;;;;;;;;5098074;27;45548;-68
2022/10/31 02:14:06;;;;;;;;;20.25;20.25;;;;;;;;5097411;27;45338;-69
2022/10/31 02:16:31;;;;;;;;;21.75;20.50;;;;;;;;5097843;27;45380;-74
2022/10/31 02:18:56;;;;;;;;;20.00;20.00;;;;;;;;5098690;27;45221;-74
2022/10/31 02:21:33;;;;;;;;;19.75;19.75;;;;;;;;5100519;27;45156;-69
2022/10/31 02:24:17;;;;;;;;;20.50;20.50;;;;;;;;5098504;27;45444;-67
2022/10/31 02:26:52;;;;;;;;;20.25;20.25;;;;;;;;5100071;27;45479;-75
2022/10/31 02:29:36;;;;;;;;;24.00;24.00;;;;;;;;5098948;27;45206;-77
2022/10/31 02:32:04;;;;;;;;;19.50;19.50;;;;;;;;5099923;27;45259;-77
2022/10/31 02:34:29;;;;;;;;;19.50;19.50;;;;;;;;5103452;27;45297;-76
2022/10/31 02:37:01;;;;;;;;;22.80;22.80;;;;;;;;5101438;27;45275;-74
2022/10/31 02:39:32;;;;;;;;;21.00;21.00;;;;;;;;5101541;27;45342;-75
2022/10/31 02:41:57;;;;;;;;;21.50;21.50;;;;;;;;5099425;27;45297;-75
2022/10/31 02:44:28;;;;;;;;;20.50;20.00;;;;;;;;5100364;27;46238;-74
2022/10/31 02:47:13;;;;;;;;;18.75;18.75;;;;;;;;5100831;27;45300;-72
2022/10/31 02:49:43;;;;;;;;;19.00;18.00;;;;;;;;5099433;27;45295;-73
2022/10/31 02:52:17;;;;;;;;;21.50;20.75;;;;;;;;5100182;27;45450;-75
2022/10/31 02:54:43;;;;;;;;;17.25;17.25;;;;;;;;5101761;27;46383;-75
2022/10/31 02:57:08;;;;;;;;;20.50;20.50;;;;;;;;5100640;27;45273;-75
2022/10/31 02:59:35;;;;;;;;;17.75;17.50;;;;;;;;5099464;27;45282;-74
2022/10/31 03:02:00;;;;;;;;;19.75;19.75;;;;;;;;5100192;27;45365;-71
2022/10/31 03:04:32;;;;;;;;;20.00;20.00;;;;;;;;5105238;27;47226;-74
2022/10/31 03:07:03;;;;;;;;;21.25;21.25;;;;;;;;5102937;27;45392;-75
2022/10/31 03:09:31;;;;;;;;;21.00;21.00;;;;;;;;5097660;27;45453;-75
2022/10/31 03:11:56;;;;;;;;;21.25;21.25;;;;;;;;5102361;27;45409;-74
2022/10/31 03:14:33;;;;;;;;;21.50;21.50;;;;;;;;5101043;27;45328;-71
2022/10/31 03:17:02;;;;;;;;;21.00;21.00;;;;;;;;5098395;27;45266;-67
2022/10/31 03:19:34;;;;;;;;;24.00;24.00;;;;;;;;5100671;27;45325;-74
2022/10/31 03:22:02;;;;;;;;;20.75;20.75;;;;;;;;5099280;27;45392;-73
2022/10/31 03:24:30;;;;;;;;;19.00;19.00;;;;;;;;5099719;27;46210;-75
2022/10/31 03:26:57;;;;;;;;;22.25;22.25;;;;;;;;5113196;27;45322;-76
2022/10/31 03:29:25;;;;;;;;;18.00;18.00;;;;;;;;5101549;27;45300;-75
2022/10/31 03:31:55;;;;;;;;;15.75;15.75;;;;;;;;5098298;27;45542;-75
2022/10/31 03:34:20;;;;;;;;;20.50;19.25;;;;;;;;5096637;27;46284;-76
2022/10/31 03:36:49;;;;;;;;;21.75;21.50;;;;;;;;5096601;27;45332;-75
2022/10/31 03:39:15;;;;;;;;;21.00;21.00;;;;;;;;5096689;27;45447;-74
2022/10/31 03:41:42;;;;;;;;;21.50;20.75;;;;;;;;5096927;27;45203;-73
2022/10/31 03:44:13;;;;;;;;;18.00;18.00;;;;;;;;5097847;27;46312;-74
2022/10/31 03:46:39;;;;;;;;;18.50;18.50;;;;;;;;5095937;27;45310;-76
2022/10/31 03:49:04;;;;;;;;;17.75;17.75;;;;;;;;5097103;27;45311;-73
2022/10/31 03:51:34;;;;;;;;;13.25;13.25;;;;;;;;5097802;27;45461;-75
2022/10/31 03:54:02;;;;;;;;;19.75;19.75;;;;;;;;5103329;27;46457;-73
2022/10/31 03:56:33;;;;;;;;;16.25;16.25;;;;;;;;5103219;27;45256;-75
2022/10/31 03:59:12;;;;;;;;;19.25;19.00;;;;;;;;5103822;27;45467;-71
2022/10/31 04:01:39;;;;;;;;;21.50;21.50;;;;;;;;5096943;27;45515;-74
2022/10/31 04:04:06;;;;;;;;;19.75;19.75;;;;;;;;5081411;27;45323;-72
2022/10/31 04:06:33;;;;;;;;;20.50;20.25;;;;;;;;5082496;28;45369;-72
2022/10/31 04:09:00;;;;;;;;;19.00;19.00;;;;;;;;5082238;27;45452;-71
2022/10/31 04:11:28;;;;;;;;;22.00;21.50;;;;;;;;5083606;28;45304;-68
2022/10/31 04:13:54;;;;;;;;;19.00;19.00;;;;;;;;5087348;28;45324;-69
2022/10/31 04:16:20;;;;;;;;;17.50;17.50;;;;;;;;5083727;27;45226;-71
2022/10/31 04:18:46;;;;;;;;;20.25;18.50;;;;;;;;5082744;27;45349;-72
2022/10/31 04:21:11;;;;;;;;;16.75;16.75;;;;;;;;5081910;27;45480;-72
2022/10/31 04:23:36;;;;;;;;;18.25;18.25;;;;;;;;5081908;27;46084;-72
2022/10/31 04:26:02;;;;;;;;;14.75;14.75;;;;;;;;5082486;27;45471;-74
2022/10/31 04:28:27;;;;;;;;;16.75;16.75;;;;;;;;5081870;28;45287;-73
2022/10/31 04:30:53;;;;;;;;;18.00;18.00;;;;;;;;5082750;27;45311;-74
2022/10/31 04:33:19;;;;;;;;;16.75;16.25;;;;;;;;5082116;27;45478;-74
2022/10/31 04:35:44;;;;;;;;;16.75;16.75;;;;;;;;5083545;27;45411;-74
2022/10/31 04:38:09;;;;;;;;;17.00;17.00;;;;;;;;5088119;27;45392;-75
2022/10/31 04:40:34;;;;;;;;;14.00;14.00;;;;;;;;5083143;27;45305;-75
2022/10/31 04:42:59;;;;;;;;;16.00;16.00;;;;;;;;5082307;27;45391;-75
2022/10/31 04:45:25;;;;;;;;;13.75;13.75;;;;;;;;5082296;28;45317;-74
2022/10/31 04:47:50;;;;;;;;;14.00;14.00;;;;;;;;5082263;27;45423;-75
2022/10/31 04:50:15;;;;;;;;;16.00;15.00;;;;;;;;5082544;27;45321;-75
2022/10/31 04:52:41;;;;;;;;;14.75;14.75;;;;;;;;5081718;28;46529;-71
2022/10/31 04:55:06;;;;;;;;;13.25;13.25;;;;;;;;5082226;27;45354;-70
2022/10/31 04:57:31;;;;;;;;;14.50;13.25;;;;;;;;5082238;28;45317;-73
2022/10/31 04:59:56;;;;;;;;;15.00;15.00;;;;;;;;5083890;27;45451;-71
2022/10/31 05:02:22;;;;;;;;;15.50;15.50;;;;;;;;5085882;27;46195;-74
2022/10/31 05:04:47;;;;;;;;;15.75;15.75;;;;;;;;5080117;28;45439;-71
2022/10/31 05:07:12;;;;;;;;;14.75;14.75;;;;;;;;5078674;27;45436;-75
2022/10/31 05:09:37;;;;;;;;;16.00;15.25;;;;;;;;5080060;27;45523;-69
2022/10/31 05:12:03;;;;;;;;;13.00;13.00;;;;;;;;5084168;28;45322;-68
2022/10/31 05:14:28;;;;;;;;;17.00;16.50;;;;;;;;5078834;27;45237;-71
2022/10/31 05:16:53;;;;;;;;;13.50;13.50;;;;;;;;5077441;28;45541;-73
2022/10/31 05:19:18;;;;;;;;;16.25;16.25;;;;;;;;5078891;27;45390;-69
2022/10/31 05:21:43;;;;;;;;;14.25;14.25;;;;;;;;5077634;27;46126;-70
2022/10/31 05:24:09;;;;;;;;;13.75;13.75;;;;;;;;5076516;28;45393;-71
2022/10/31 05:26:34;;;;;;;;;13.50;13.50;;;;;;;;5080941;28;45298;-72
2022/10/31 05:28:59;;;;;;;;;13.00;13.00;;;;;;;;5083348;27;45344;-68
2022/10/31 05:31:24;;;;;;;;;12.75;12.75;;;;;;;;5110595;27;48002;-73
2022/10/31 05:33:50;;;;;;;;;15.00;15.00;;;;;;;;5079276;27;45370;-70
2022/10/31 05:36:15;;;;;;;;;15.25;14.75;;;;;;;;5078741;28;45426;-69
2022/10/31 05:38:40;;;;;;;;;20.00;18.25;;;;;;;;5076662;28;45398;-67
2022/10/31 05:41:05;;;;;;;;;15.50;15.50;;;;;;;;5078011;27;46309;-70
2022/10/31 05:43:30;;;;;;;;;14.75;14.75;;;;;;;;5076321;28;45781;-67
2022/10/31 05:45:56;;;;;;;;;12.00;12.00;;;;;;;;5077515;27;45137;-70
2022/10/31 05:48:22;;;;;;;;;13.25;13.25;;;;;;;;5077520;28;45318;-71
2022/10/31 05:50:48;;;;;;;;;13.75;13.75;;;;;;;;5077667;28;45432;-69
2022/10/31 05:53:13;;;;;;;;;14.75;14.75;;;;;;;;5077922;27;45435;-67
2022/10/31 05:55:40;;;;;;;;;14.25;14.25;;;;;;;;5078218;27;45387;-68
2022/10/31 05:58:05;;;;;;;;;10.75;10.75;;;;;;;;5079904;27;45492;-71
2022/10/31 06:00:30;;;;;;;;;12.75;12.75;;;;;;;;5110514;27;47149;-70
2022/10/31 06:02:59;;;;;;;;;10.75;9.00;;;;;;;;5082613;28;45295;-74
2022/10/31 06:05:25;;;;;;;;;13.25;13.25;;;;;;;;5083706;27;45233;-72
2022/10/31 06:07:50;;;;;;;;;11.25;11.25;;;;;;;;5082990;27;45225;-73
2022/10/31 06:10:15;;;;;;;;;12.50;12.50;;;;;;;;5087358;28;46939;-75
2022/10/31 06:12:40;;;;;;;;;13.50;13.00;;;;;;;;5089689;27;45376;-69
2022/10/31 06:15:07;;;;;;;;;12.25;12.25;;;;;;;;5093872;27;45440;-75
2022/10/31 06:17:36;;;;;;;;;14.25;13.75;;;;;;;;5097564;27;45390;-75
2022/10/31 06:20:01;;;;;;;;;11.75;11.75;;;;;;;;5097767;27;45413;-75
2022/10/31 06:22:27;;;;;;;;;13.50;13.00;;;;;;;;5098701;27;45521;-75
2022/10/31 06:24:52;;;;;;;;;12.75;12.75;;;;;;;;5098623;27;45381;-73
2022/10/31 06:27:17;;;;;;;;;14.25;13.25;;;;;;;;5100033;27;45527;-74
2022/10/31 06:29:42;;;;;;;;;12.00;12.00;;;;;;;;5098737;27;46352;-73
2022/10/31 06:32:11;;;;;;;;;9.25;9.25;;;;;;;;5097684;27;45391;-73
2022/10/31 06:34:36;;;;;;;;;13.75;13.75;;;;;;;;5098696;27;45381;-72
2022/10/31 06:37:02;;;;;;;;;11.50;11.50;;;;;;;;5098857;27;45274;-75
2022/10/31 06:39:27;;;;;;;;;13.75;13.75;;;;;;;;5098090;27;47284;-75
2022/10/31 06:41:52;;;;;;;;;13.50;13.00;;;;;;;;5099829;27;45287;-74
2022/10/31 06:44:17;;;;;;;;;13.75;13.75;;;;;;;;5099710;27;45773;-74
2022/10/31 06:46:42;;;;;;;;;13.75;13.75;;;;;;;;5103879;27;45190;-73
2022/10/31 06:49:08;;;;;;;;;15.00;15.00;;;;;;;;5099648;27;45425;-72
2022/10/31 06:51:33;;;;;;;;;13.75;13.75;;;;;;;;5098965;27;45455;-75
2022/10/31 06:53:58;;;;;;;;;16.00;16.00;;;;;;;;5103509;27;45459;-77
2022/10/31 06:56:23;;;;;;;;;17.00;17.00;;;;;;;;5104111;27;45421;-76
2022/10/31 06:58:48;;;;;;;;;14.00;14.00;;;;;;;;5099631;27;45494;-73
2022/10/31 07:01:14;;;;;;;;;13.25;13.25;;;;;;;;5096523;27;45258;-70
2022/10/31 07:03:39;;;;;;;;;14.00;14.00;;;;;;;;5098611;27;45261;-76
2022/10/31 07:06:04;;;;;;;;;14.25;14.25;;;;;;;;5097881;27;45352;-71
2022/10/31 07:08:29;;;;;;;;;22.00;19.50;;;;;;;;5097743;27;46121;-73
2022/10/31 07:10:56;;;;;;;;;14.00;14.00;;;;;;;;5098298;27;45368;-71
2022/10/31 07:13:25;;;;;;;;;16.25;16.25;;;;;;;;5097567;27;45439;-71
2022/10/31 07:15:51;;;;;;;;;12.50;12.50;;;;;;;;5097772;27;45538;-68
2022/10/31 07:18:16;;;;;;;;;18.75;18.75;;;;;;;;5097942;27;46279;-74
2022/10/31 07:20:41;;;;;;;;;16.00;16.00;;;;;;;;5099796;27;45313;-71
2022/10/31 07:23:08;;;;;;;;;18.00;18.00;;;;;;;;5096881;27;45230;-69
2022/10/31 07:25:33;;;;;;;;;22.75;22.75;;;;;;;;5097163;27;45565;-70
2022/10/31 07:27:59;;;;;;;;;15.50;15.50;;;;;;;;5095920;27;45329;-69
2022/10/31 07:30:25;;;;;;;;;22.00;22.00;;;;;;;;5096654;27;45348;-70
2022/10/31 07:32:50;;;;;;;;;52.50;44.75;;;;;;;;5096382;27;45483;-71
2022/10/31 07:35:17;;;;;;;;;36.25;33.50;;;;;;;;5097892;27;45310;-68
2022/10/31 07:37:42;;;;;;;;;29.75;29.50;;;;;;;;5096425;27;46284;-73
2022/10/31 07:40:08;;;;;;;;;30.25;30.00;;;;;;;;5097180;27;45538;-73
2022/10/31 07:42:39;;;;;;;;;22.00;22.00;;;;;;;;5096749;27;45214;-72
2022/10/31 07:45:05;;;;;;;;;23.00;23.00;;;;;;;;5096700;27;45470;-74
2022/10/31 07:47:40;;;;;;;;;18.50;18.50;;;;;;;;5095106;27;46266;-74
2022/10/31 07:50:06;;;;;;;;;20.75;20.75;;;;;;;;5096749;27;45336;-72
2022/10/31 07:52:31;;;;;;;;;29.25;28.00;;;;;;;;5096953;27;45459;-72
2022/10/31 07:54:57;;;;;;;;;23.50;23.50;;;;;;;;5096740;27;45533;-73
2022/10/31 07:57:22;;;;;;;;;20.75;19.75;;;;;;;;5096154;27;45394;-74
2022/10/31 07:59:47;;;;;;;;;21.50;21.50;;;;;;;;5094842;27;45373;-73
2022/10/31 08:02:12;;;;;;;;;18.50;18.50;;;;;;;;5096616;27;45311;-70
2022/10/31 08:04:38;;;;;;;;;19.75;19.75;;;;;;;;5095952;27;45293;-74
2022/10/31 08:07:03;;;;;;;;;24.00;24.00;;;;;;;;5095447;27;46313;-72
2022/10/31 08:09:28;;;;;;;;;22.00;22.00;;;;;;;;5091737;27;45410;-71
2022/10/31 08:11:53;;;;;;;;;23.25;23.25;;;;;;;;5092832;27;45254;-73
2022/10/31 08:14:19;;;;;;;;;23.00;23.00;;;;;;;;5096280;27;45602;-72
2022/10/31 08:16:44;;;;;;;;;8.50;8.25;;;;;;;;5096459;27;46151;-73
2022/10/31 08:19:09;;;;;;;;;22.25;21.50;;;;;;;;5095465;27;45378;-73
2022/10/31 08:21:37;;;;;;;;;21.25;21.25;;;;;;;;5094804;27;45242;-80
2022/10/31 08:24:03;;;;;;;;;26.50;26.50;;;;;;;;5090201;27;45349;-78
2022/10/31 08:26:28;;;;;;;;;26.00;26.00;;;;;;;;5098152;27;46339;-79
2022/10/31 08:28:54;;;;;;;;;24.00;23.25;;;;;;;;5095823;27;45413;-77
2022/10/31 08:31:20;;;;;;;;;27.00;26.00;;;;;;;;5093420;27;45403;-82
2022/10/31 08:33:46;;;;;;;;;24.50;24.00;;;;;;;;5113567;27;45559;-81
2022/10/31 08:36:11;;;;;;;;;26.50;26.50;;;;;;;;5114681;27;45279;-81
2022/10/31 08:38:37;;;;;;;;;26.25;25.00;;;;;;;;5116787;27;45306;-78
2022/10/31 08:41:05;;;;;;;;;28.00;27.75;;;;;;;;5112575;27;45397;-75
2022/10/31 08:43:30;;;;;;;;;33.50;32.00;;;;;;;;5104000;27;45290;-74
2022/10/31 08:45:55;;;;;;;;;29.00;27.50;;;;;;;;5104968;27;45419;-75
2022/10/31 08:48:22;;;;;;;;;30.25;28.75;;;;;;;;5105783;27;45358;-76
2022/10/31 08:50:47;;;;;;;;;25.25;25.25;;;;;;;;5111906;27;45325;-83
2022/10/31 08:53:17;;;;;;;;;30.75;29.50;;;;;;;;5120240;27;45121;-77
2022/10/31 08:55:44;;;;;;;;;26.75;26.25;;;;;;;;5119653;27;45263;-76
2022/10/31 08:58:17;;;;;;;;;23.00;23.00;;;;;;;;5119537;27;45198;-81
2022/10/31 09:00:43;;;;;;;;;24.50;24.50;;;;;;;;5117859;27;45321;-86
2022/10/31 09:03:12;;;;;;;;;27.75;27.75;;;;;;;;5116762;27;44945;-75
2022/10/31 09:05:38;;;;;;;;;34.00;31.00;;;;;;;;5114562;27;45221;-78
2022/10/31 09:08:04;;;;;;;;;28.00;28.00;;;;;;;;5114833;27;45937;-79
2022/10/31 09:10:30;;;;;;;;;28.75;26.75;;;;;;;;5115737;27;45440;-79
2022/10/31 09:13:06;;;;;;;;;33.00;32.00;;;;;;;;5114546;27;45457;-83
2022/10/31 09:15:32;;;;;;;;;25.75;25.75;;;;;;;;5120333;27;45505;-81
2022/10/31 09:17:57;;;;;;;;;26.75;26.75;;;;;;;;5119578;27;45317;-75
2022/10/31 09:20:22;;;;;;;;;27.25;26.50;;;;;;;;5107555;27;45340;-78
2022/10/31 09:22:47;;;;;;;;;29.00;29.00;;;;;;;;5103617;27;45537;-80
2022/10/31 09:25:13;;;;;;;;;25.25;25.25;;;;;;;;5107095;27;46191;-78
2022/10/31 09:27:38;;;;;;;;;28.00;27.00;;;;;;;;5104631;27;45229;-80
2022/10/31 09:30:04;;;;;;;;;26.75;26.00;;;;;;;;5106461;27;45407;-76
2022/10/31 09:32:29;;;;;;;;;34.00;31.25;;;;;;;;5107859;27;44797;-81
2022/10/31 09:34:54;;;;;;;;;25.50;25.50;;;;;;;;5107334;27;46253;-85
2022/10/31 09:37:20;;;;;;;;;26.25;26.25;;;;;;;;5103891;27;45846;-81
2022/10/31 09:39:45;;;;;;;;;26.75;26.50;;;;;;;;5102712;27;45217;-75
2022/10/31 09:42:46;;;;;;;;;23.50;22.50;;;;;;;;5101326;27;45578;-76
2022/10/31 09:45:11;;;;;;;;;23.00;22.75;;;;;;;;5045983;28;45420;-80
2022/10/31 09:47:55;;;;;;;;;26.75;26.75;;;;;;;;5099867;27;44860;-76
2022/10/31 09:50:23;;;;;;;;;28.00;27.00;;;;;;;;5109768;27;45314;-75
2022/10/31 09:52:53;;;;;;;;;22.75;22.75;;;;;;;;5110362;27;45380;-75
2022/10/31 09:55:27;;;;;;;;;28.00;28.00;;;;;;;;5107613;27;46004;-86
2022/10/31 09:57:53;;;;;;;;;27.50;27.25;;;;;;;;5104966;27;45249;-75
2022/10/31 10:00:19;;;;;;;;;29.75;29.75;;;;;;;;5103979;27;45369;-79
2022/10/31 10:02:55;;;;;;;;;37.00;33.50;;;;;;;;5118396;27;44858;-86
2022/10/31 10:05:34;;;;;;;;;26.25;26.25;;;;;;;;5108529;27;46694;-89
2022/10/31 10:08:11;;;;;;;;;26.75;26.75;;;;;;;;5108341;27;45222;-89
2022/10/31 10:10:50;;;;;;;;;28.25;27.50;;;;;;;;5113864;27;44802;-88
2022/10/31 10:13:25;;;;;;;;;24.50;24.00;;;;;;;;5115710;27;45423;-87
2022/10/31 10:15:51;;;;;;;;;24.00;24.00;;;;;;;;5113405;27;45434;-84
2022/10/31 10:18:16;;;;;;;;;24.75;24.75;;;;;;;;5118145;27;44895;-77
2022/10/31 10:20:41;;;;;;;;;23.00;23.00;;;;;;;;5115832;27;44693;-74
2022/10/31 10:23:13;;;;;;;;;26.50;26.50;;;;;;;;5114465;27;44828;-83
2022/10/31 10:25:42;;;;;;;;;18.25;17.50;;;;;;;;5112566;27;46395;-84
2022/10/31 10:28:10;;;;;;;;;23.75;23.75;;;;;;;;5115972;27;45281;-86
2022/10/31 10:30:39;;;;;;;;;24.25;22.50;;;;;;;;5116605;27;45200;-78
2022/10/31 10:33:08;;;;;;;;;22.25;22.25;;;;;;;;5111503;27;45413;-88
2022/10/31 10:35:52;;;;;;;;;13.75;13.75;;;;;;;;5116429;27;48232;-82
2022/10/31 10:38:23;;;;;;;;;27.00;23.00;;;;;;;;5117081;27;44728;-82
2022/10/31 10:40:49;;;;;;;;;26.00;26.00;;;;;;;;5117776;27;45327;-76
2022/10/31 10:43:23;;;;;;;;;21.75;21.75;;;;;;;;5118565;27;44910;-77
2022/10/31 10:49:06;;;;;;;;;24.50;23.75;;;;;;;;5116081;27;45253;-76
2022/10/31 10:51:50;;;;;;;;;9.75;9.75;;;;;;;;5114467;27;44787;-78
2022/10/31 10:54:15;;;;;;;;;26.75;26.00;;;;;;;;5111448;27;45365;-75
2022/10/31 10:56:48;;;;;;;;;23.00;23.00;;;;;;;;5110613;27;48475;-75
2022/10/31 10:59:16;;;;;;;;;26.75;26.75;;;;;;;;5109518;27;45440;-77
2022/10/31 11:01:41;;;;;;;;;49.50;41.25;;;;;;;;5106322;27;45363;-75
2022/10/31 11:04:27;;;;;;;;;65.25;53.00;;;;;;;;5106058;27;45293;-84
2022/10/31 11:07:04;;;;;;;;;44.25;38.25;;;;;;;;5110354;27;46517;-81
2022/10/31 11:09:30;;;;;;;;;33.50;31.50;;;;;;;;5107392;27;45281;-74
2022/10/31 11:11:56;;;;;;;;;27.00;26.00;;;;;;;;5100652;27;45222;-79
2022/10/31 11:14:22;;;;;;;;;61.00;50.50;;;;;;;;5104740;27;45198;-76
2022/10/31 11:17:07;;;;;;;;;56.00;46.50;;;;;;;;5104348;27;45425;-75
2022/10/31 11:19:32;;;;;;;;;47.50;41.00;;;;;;;;5104899;27;45235;-77
2022/10/31 11:22:08;;;;;;;;;23.50;23.00;;;;;;;;5113708;27;44713;-75
2022/10/31 11:24:37;;;;;;;;;21.50;21.25;;;;;;;;5108179;27;45584;-76
2022/10/31 11:27:09;;;;;;;;;16.75;16.00;;;;;;;;5108843;27;46181;-83
2022/10/31 11:29:36;;;;;;;;;14.00;14.00;;;;;;;;5113202;27;45416;-81
2022/10/31 11:32:02;;;;;;;;;15.25;15.25;;;;;;;;5114182;27;45281;-80
2022/10/31 11:34:27;;;;;;;;;22.50;20.25;;;;;;;;5110550;27;45211;-80
2022/10/31 11:36:52;;;;;;;;;20.75;20.75;;;;;;;;5106893;27;45009;-76
2022/10/31 11:39:21;;;;;;;;;20.50;18.75;;;;;;;;5105399;27;45253;-80
2022/10/31 11:41:47;;;;;;;;;14.50;14.50;;;;;;;;5104652;27;45334;-80
2022/10/31 11:44:17;;;;;;;;;16.75;16.50;;;;;;;;5104959;27;45327;-85
2022/10/31 11:46:54;;;;;;;;;17.50;17.50;;;;;;;;5086456;27;46484;-83
2022/10/31 11:49:19;;;;;;;;;15.75;15.75;;;;;;;;5104454;27;45269;-77
2022/10/31 11:51:52;;;;;;;;;16.60;16.60;;;;;;;;5105720;27;45185;-84
2022/10/31 11:54:27;;;;;;;;;20.50;20.50;;;;;;;;5110499;27;45255;-82
2022/10/31 11:56:53;;;;;;;;;15.50;15.50;;;;;;;;5110791;27;45227;-82
2022/10/31 11:59:24;;;;;;;;;15.00;15.00;;;;;;;;5112414;27;44811;-84
2022/10/31 12:01:50;;;;;;;;;15.25;15.25;;;;;;;;5112569;27;45373;-87
2022/10/31 12:04:16;;;;;;;;;15.25;15.25;;;;;;;;5115046;27;44789;-78
2022/10/31 12:06:47;;;;;;;;;16.75;15.00;;;;;;;;5112692;27;45637;-83
2022/10/31 12:09:26;;;;;;;;;15.50;15.50;;;;;;;;5109274;27;45288;-76
2022/10/31 12:11:57;;;;;;;;;15.75;15.75;;;;;;;;5110243;27;45268;-77
2022/10/31 12:14:25;;;;;;;;;16.25;15.50;;;;;;;;5116259;27;45209;-78
2022/10/31 12:17:09;;;;;;;;;18.50;18.50;;;;;;;;5117949;27;45427;-85
2022/10/31 12:19:44;;;;;;;;;24.00;24.00;;;;;;;;5114143;27;45448;-80
2022/10/31 12:22:20;;;;;;;;;18.00;18.00;;;;;;;;5112559;27;45395;-86
2022/10/31 12:24:54;;;;;;;;;13.00;13.00;;;;;;;;5112339;27;45387;-83
2022/10/31 12:27:34;;;;;;;;;18.00;18.00;;;;;;;;5107588;27;46133;-80
2022/10/31 12:30:21;;;;;;;;;18.00;18.00;;;;;;;;5109489;27;45245;-78
2022/10/31 12:33:12;;;;;;;;;15.25;15.25;;;;;;;;5107628;27;45290;-79
2022/10/31 12:35:45;;;;;;;;;16.50;16.50;;;;;;;;5113218;27;45314;-80
2022/10/31 12:38:11;;;;;;;;;11.25;11.25;;;;;;;;5110759;27;47028;-86
2022/10/31 12:41:15;;;;;;;;;21.75;21.75;;;;;;;;5116201;27;45372;-78
2022/10/31 12:44:10;;;;;;;;;14.75;14.75;;;;;;;;5059857;28;45470;-76
2022/10/31 12:46:44;;;;;;;;;11.50;11.50;;;;;;;;5041691;28;44920;-83
2022/10/31 12:49:17;;;;;;;;;17.00;15.75;;;;;;;;5095492;27;46098;-86
2022/10/31 12:52:15;;;;;;;;;16.75;16.50;;;;;;;;5114808;27;45293;-88
2022/10/31 12:54:59;;;;;;;;;16.50;16.50;;;;;;;;5069044;27;45488;-89
2022/10/31 12:57:47;;;;;;;;;15.75;15.75;;;;;;;;5117597;27;44873;-86
2022/10/31 13:00:12;;;;;;;;;19.25;18.75;;;;;;;;5112349;27;45396;-77
2022/10/31 13:02:56;;;;;;;;;14.75;13.50;;;;;;;;5116306;27;45275;-81
2022/10/31 13:05:33;;;;;;;;;14.50;14.50;;;;;;;;5113630;27;45342;-81
2022/10/31 13:08:06;;;;;;;;;15.75;15.75;;;;;;;;5111888;27;45233;-77
2022/10/31 13:10:34;;;;;;;;;16.75;16.75;;;;;;;;5110474;27;45444;-90
2022/10/31 13:13:04;;;;;;;;;12.00;12.00;;;;;;;;5111892;27;44641;-81
2022/10/31 13:15:32;;;;;;;;;15.50;15.50;;;;;;;;5109975;27;45257;-91
2022/10/31 13:18:01;;;;;;;;;19.25;19.25;;;;;;;;5110687;27;45317;-93
2022/10/31 13:20:29;;;;;;;;;15.50;15.50;;;;;;;;5110430;27;45341;-87
2022/10/31 13:23:08;;;;;;;;;13.25;13.25;;;;;;;;5106765;27;45306;-87
2022/10/31 13:25:37;;;;;;;;;15.75;15.75;;;;;;;;5107775;27;44826;-82
2022/10/31 13:28:04;;;;;;;;;13.25;13.25;;;;;;;;5111462;27;45336;-86
2022/10/31 13:30:32;;;;;;;;;17.75;17.75;;;;;;;;5116240;27;45858;-81
2022/10/31 13:33:03;;;;;;;;;13.75;13.75;;;;;;;;5112560;27;45351;-83
2022/10/31 13:35:46;;;;;;;;;15.75;15.75;;;;;;;;5109629;27;45243;-89
2022/10/31 13:38:34;;;;;;;;;17.75;17.25;;;;;;;;5111707;27;45228;-89
2022/10/31 13:41:12;;;;;;;;;15.25;15.25;;;;;;;;5083894;27;45529;-89
2022/10/31 13:43:59;;;;;;;;;15.25;15.25;;;;;;;;5118700;27;44823;-85
2022/10/31 13:46:30;;;;;;;;;13.25;10.25;;;;;;;;5110877;27;45308;-75
2022/10/31 13:48:56;;;;;;;;;19.25;16.75;;;;;;;;5114372;27;45342;-76
2022/10/31 13:51:28;;;;;;;;;24.00;24.00;;;;;;;;5113474;27;45071;-75
2022/10/31 13:53:53;;;;;;;;;26.25;26.25;;;;;;;;5103559;27;45324;-76
2022/10/31 13:56:22;;;;;;;;;39.25;33.00;;;;;;;;5101854;27;45275;-77
2022/10/31 13:59:06;;;;;;;;;15.75;15.75;;;;;;;;5105484;27;45372;-77
2022/10/31 14:01:32;;;;;;;;;13.00;12.50;;;;;;;;5113661;27;46114;-80
2022/10/31 14:04:06;;;;;;;;;12.25;12.25;;;;;;;;5120901;27;44746;-74
2022/10/31 14:06:36;;;;;;;;;15.75;15.75;;;;;;;;5120325;27;45195;-75
2022/10/31 14:09:02;;;;;;;;;14.00;14.00;;;;;;;;5102897;27;45086;-81
2022/10/31 14:11:28;;;;;;;;;17.00;17.00;;;;;;;;5114554;27;46212;-84
2022/10/31 14:13:54;;;;;;;;;14.75;14.75;;;;;;;;5114292;27;45158;-89
2022/10/31 14:16:24;;;;;;;;;12.50;11.50;;;;;;;;5112733;27;45309;-74
2022/10/31 14:19:14;;;;;;;;;14.25;14.25;;;;;;;;5114469;27;44973;-84
2022/10/31 14:21:41;;;;;;;;;12.25;12.25;;;;;;;;5105618;27;46238;-83
2022/10/31 14:24:32;;;;;;;;;13.75;13.75;;;;;;;;5105628;27;45776;-79
2022/10/31 14:26:58;;;;;;;;;13.00;13.00;;;;;;;;5110043;27;44704;-76